createdAt,value
2019-05-21T00:00:43.595Z,11.92
2019-05-21T00:03:17.468Z,11.98
2019-05-21T00:05:49.805Z,12.09
2019-05-21T00:08:22.844Z,12.07
2019-05-21T00:10:55.515Z,12.11
2019-05-21T00:13:27.946Z,12.11
2019-05-21T00:16:01.104Z,12.10
2019-05-21T00:18:33.752Z,11.97
2019-05-21T00:21:06.674Z,12.18
2019-05-21T00:23:39.186Z,12.06
2019-05-21T00:26:12.270Z,11.89
2019-05-21T00:28:42.823Z,12.07
2019-05-21T00:31:50.029Z,12.07
2019-05-21T00:34:57.332Z,12.03
2019-05-21T00:38:06.030Z,11.82
2019-05-21T00:41:13.191Z,11.85
2019-05-21T00:43:58.113Z,11.82
2019-05-21T00:46:31.097Z,11.72
2019-05-21T00:49:03.758Z,11.76
2019-05-21T00:51:36.608Z,11.82
2019-05-21T00:54:09.214Z,11.90
2019-05-21T00:56:42.432Z,11.94
2019-05-21T00:59:13.522Z,11.95
2019-05-21T01:01:46.010Z,12.04
2019-05-21T01:04:22.041Z,12.00
2019-05-21T01:06:54.444Z,11.96
2019-05-21T01:09:27.535Z,11.98
2019-05-21T01:12:00.249Z,12.02
2019-05-21T01:14:32.854Z,12.14
2019-05-21T01:17:05.684Z,12.16
2019-05-21T01:19:38.315Z,12.12
2019-05-21T01:22:11.419Z,12.06
2019-05-21T01:24:44.197Z,12.07
2019-05-21T01:27:17.029Z,12.27
2019-05-21T01:29:49.671Z,12.31
2019-05-21T01:32:22.882Z,12.15
2019-05-21T01:34:54.153Z,12.31
2019-05-21T01:37:27.241Z,12.40
2019-05-21T01:39:58.401Z,12.34
2019-05-21T01:42:31.399Z,12.36
2019-05-21T01:45:03.895Z,12.32
2019-05-21T01:47:36.897Z,12.41
2019-05-21T01:50:09.671Z,12.42
2019-05-21T01:52:42.697Z,12.36
2019-05-21T01:55:15.553Z,12.35
2019-05-21T01:57:48.566Z,12.19
2019-05-21T02:00:21.344Z,12.11
2019-05-21T02:02:54.204Z,12.06
2019-05-21T02:05:33.228Z,11.92
2019-05-21T02:08:01.862Z,12.09
2019-05-21T02:10:33.120Z,12.05
2019-05-21T02:13:06.097Z,12.11
2019-05-21T02:15:38.611Z,12.06
2019-05-21T02:18:11.693Z,12.07
2019-05-21T02:20:44.168Z,12.04
2019-05-21T02:23:16.671Z,11.97
2019-05-21T02:25:49.672Z,12.11
2019-05-21T02:28:22.203Z,12.17
2019-05-21T02:30:56.623Z,12.12
2019-05-21T02:33:29.397Z,11.93
2019-05-21T02:36:01.911Z,12.03
2019-05-21T02:38:34.674Z,12.10
2019-05-21T02:41:07.509Z,12.10
2019-05-21T02:43:40.210Z,11.89
2019-05-21T02:46:13.183Z,11.96
2019-05-21T02:48:46.359Z,11.97
2019-05-21T02:51:19.146Z,11.99
2019-05-21T02:53:52.588Z,11.86
2019-05-21T02:56:25.180Z,11.77
2019-05-21T02:58:57.526Z,11.58
2019-05-21T03:01:49.231Z,11.55
2019-05-21T03:04:21.766Z,11.54
2019-05-21T03:06:56.959Z,11.56
2019-05-21T03:09:29.823Z,11.53
2019-05-21T03:12:02.497Z,11.50
2019-05-21T03:14:35.333Z,11.56
2019-05-21T03:17:08.149Z,11.68
2019-05-21T03:19:40.658Z,11.65
2019-05-21T03:22:13.607Z,11.70
2019-05-21T03:24:46.283Z,11.59
2019-05-21T03:27:19.212Z,11.60
2019-05-21T03:29:51.960Z,11.48
2019-05-21T03:32:24.482Z,11.55
2019-05-21T03:34:57.583Z,11.63
2019-05-21T03:37:30.185Z,11.62
2019-05-21T03:40:03.731Z,11.70
2019-05-21T03:42:36.823Z,11.79
2019-05-21T03:45:09.807Z,11.65
2019-05-21T03:47:42.643Z,11.73
2019-05-21T03:50:15.211Z,11.69
2019-05-21T03:52:48.164Z,11.81
2019-05-21T03:55:20.898Z,11.83
2019-05-21T03:57:53.282Z,11.97
2019-05-21T04:00:26.194Z,12.00
2019-05-21T04:02:58.966Z,12.05
2019-05-21T04:05:31.407Z,12.08
2019-05-21T04:08:04.080Z,12.14
2019-05-21T04:10:36.838Z,12.23
2019-05-21T04:13:10.059Z,12.30
2019-05-21T04:15:57.956Z,12.49
2019-05-21T04:18:36.789Z,12.68
2019-05-21T04:21:09.794Z,12.85
2019-05-21T04:23:42.629Z,12.99
2019-05-21T04:26:15.657Z,13.10
2019-05-21T04:28:48.119Z,13.28
2019-05-21T04:31:21.103Z,13.48
2019-05-21T04:33:53.729Z,13.70
2019-05-21T04:36:26.420Z,13.86
2019-05-21T04:38:59.398Z,14.05
2019-05-21T04:41:31.620Z,14.19
2019-05-21T04:44:04.268Z,14.30
2019-05-21T04:46:36.521Z,14.35
2019-05-21T04:49:09.470Z,14.34
2019-05-21T04:51:42.028Z,14.34
2019-05-21T04:54:14.529Z,14.36
2019-05-21T04:56:46.985Z,14.29
2019-05-21T04:59:19.909Z,14.20
2019-05-21T05:01:52.497Z,14.42
2019-05-21T05:04:24.945Z,14.58
2019-05-21T05:06:57.890Z,14.68
2019-05-21T05:09:30.528Z,14.89
2019-05-21T05:12:03.590Z,15.11
2019-05-21T05:14:36.309Z,15.23
2019-05-21T05:17:09.295Z,15.27
2019-05-21T05:19:41.990Z,15.51
2019-05-21T05:22:14.660Z,15.77
2019-05-21T05:24:48.048Z,15.97
2019-05-21T05:27:20.441Z,16.09
2019-05-21T05:29:53.399Z,16.13
2019-05-21T05:32:26.023Z,16.33
2019-05-21T05:34:58.894Z,16.19
2019-05-21T05:37:43.157Z,16.26
2019-05-21T05:40:06.080Z,16.31
2019-05-21T05:42:38.870Z,16.37
2019-05-21T05:45:12.108Z,16.52
2019-05-21T05:47:44.737Z,16.56
2019-05-21T05:50:19.068Z,16.59
2019-05-21T05:52:52.057Z,16.51
2019-05-21T05:55:24.679Z,16.52
2019-05-21T05:57:57.722Z,16.54
2019-05-21T06:00:30.531Z,16.66
2019-05-21T06:03:03.055Z,16.96
2019-05-21T06:05:35.842Z,16.86
2019-05-21T06:08:08.490Z,17.10
2019-05-21T06:10:41.530Z,17.19
2019-05-21T06:13:14.167Z,17.27
2019-05-21T06:15:46.629Z,17.32
2019-05-21T06:18:19.575Z,17.41
2019-05-21T06:20:52.109Z,17.59
2019-05-21T06:23:24.682Z,17.77
2019-05-21T06:25:57.758Z,17.94
2019-05-21T06:28:28.875Z,18.12
2019-05-21T06:31:01.705Z,18.47
2019-05-21T06:33:34.251Z,18.69
2019-05-21T06:36:06.834Z,18.70
2019-05-21T06:38:39.765Z,18.95
2019-05-21T06:41:12.431Z,19.04
2019-05-21T06:43:45.452Z,19.08
2019-05-21T06:46:17.528Z,18.80
2019-05-21T06:48:50.298Z,18.94
2019-05-21T06:51:23.005Z,19.15
2019-05-21T06:53:55.900Z,19.33
2019-05-21T06:56:28.437Z,19.29
2019-05-21T06:59:01.472Z,19.33
2019-05-21T07:01:35.354Z,19.42
2019-05-21T07:04:08.125Z,19.29
2019-05-21T07:06:40.544Z,19.18
2019-05-21T07:09:13.496Z,19.42
2019-05-21T07:11:44.717Z,19.28
2019-05-21T07:14:18.301Z,19.28
2019-05-21T07:16:51.676Z,19.53
2019-05-21T07:19:24.205Z,19.60
2019-05-21T07:22:11.580Z,19.75
2019-05-21T07:24:31.459Z,19.83
2019-05-21T07:27:04.051Z,19.49
2019-05-21T07:29:36.878Z,19.67
2019-05-21T07:32:09.516Z,19.44
2019-05-21T07:34:42.247Z,19.63
2019-05-21T07:37:15.006Z,19.83
2019-05-21T07:39:47.361Z,20.05
2019-05-21T07:42:19.894Z,20.06
2019-05-21T07:44:52.749Z,20.31
2019-05-21T07:47:25.501Z,20.34
2019-05-21T07:49:58.474Z,20.36
2019-05-21T07:52:31.281Z,20.57
2019-05-21T07:55:03.659Z,20.71
2019-05-21T07:57:36.072Z,20.44
2019-05-21T08:00:09.797Z,20.65
2019-05-21T08:02:42.731Z,20.36
2019-05-21T08:05:15.767Z,20.26
2019-05-21T08:07:46.898Z,20.29
2019-05-21T08:10:19.525Z,20.40
2019-05-21T08:12:52.207Z,20.68
2019-05-21T08:15:24.834Z,20.82
2019-05-21T08:17:56.884Z,21.02
2019-05-21T08:20:29.477Z,20.96
2019-05-21T08:23:02.402Z,20.94
2019-05-21T08:25:33.572Z,21.25
2019-05-21T08:28:06.441Z,21.25
2019-05-21T08:30:38.904Z,21.21
2019-05-21T08:33:11.430Z,21.26
2019-05-21T08:35:44.126Z,21.10
2019-05-21T08:38:16.325Z,21.34
2019-05-21T08:40:48.789Z,21.45
2019-05-21T08:43:22.231Z,21.29
2019-05-21T08:45:54.779Z,21.21
2019-05-21T08:48:27.659Z,20.97
2019-05-21T08:51:00.261Z,20.68
2019-05-21T08:53:32.828Z,20.46
2019-05-21T08:56:05.604Z,20.40
2019-05-21T08:58:38.273Z,20.24
2019-05-21T09:01:11.154Z,20.20
2019-05-21T09:03:43.811Z,20.25
2019-05-21T09:06:16.280Z,20.06
2019-05-21T09:08:49.756Z,20.10
2019-05-21T09:11:22.653Z,19.90
2019-05-21T09:13:55.186Z,20.02
2019-05-21T09:16:28.083Z,20.16
2019-05-21T09:19:01.010Z,20.12
2019-05-21T09:21:33.573Z,20.09
2019-05-21T09:24:06.366Z,20.09
2019-05-21T09:26:39.122Z,20.11
2019-05-21T09:29:12.095Z,20.51
2019-05-21T09:31:44.682Z,21.12
2019-05-21T09:34:17.314Z,21.23
2019-05-21T09:36:50.140Z,21.53
2019-05-21T09:39:22.830Z,21.40
2019-05-21T09:41:55.034Z,21.63
2019-05-21T09:44:27.899Z,21.64
2019-05-21T09:47:00.757Z,21.57
2019-05-21T09:49:33.715Z,21.49
2019-05-21T09:52:06.366Z,21.43
2019-05-21T09:54:40.288Z,21.44
2019-05-21T09:57:15.016Z,21.29
2019-05-21T10:00:02.137Z,21.26
2019-05-21T10:02:36.269Z,21.14
2019-05-21T10:05:08.976Z,21.02
2019-05-21T10:07:41.934Z,20.98
2019-05-21T10:10:15.023Z,20.74
2019-05-21T10:12:47.926Z,20.31
2019-05-21T10:15:20.040Z,19.83
2019-05-21T10:17:52.522Z,19.36
2019-05-21T10:20:25.536Z,19.05
2019-05-21T10:22:56.560Z,18.77
2019-05-21T10:25:29.561Z,18.24
2019-05-21T10:28:00.733Z,18.01
2019-05-21T10:30:33.003Z,18.05
2019-05-21T10:33:05.982Z,17.77
2019-05-21T10:35:38.520Z,17.74
2019-05-21T10:38:11.613Z,17.83
2019-05-21T10:40:42.726Z,18.14
2019-05-21T10:43:15.442Z,18.18
2019-05-21T10:45:48.301Z,18.14
2019-05-21T10:48:20.917Z,18.12
2019-05-21T10:50:53.873Z,18.12
2019-05-21T10:53:26.519Z,18.09
2019-05-21T10:55:59.065Z,17.56
2019-05-21T10:58:31.930Z,17.66
2019-05-21T11:01:13.400Z,17.75
2019-05-21T11:04:04.865Z,17.44
2019-05-21T11:06:38.021Z,17.17
2019-05-21T11:09:17.139Z,16.83
2019-05-21T11:11:51.967Z,16.45
2019-05-21T11:14:24.066Z,16.34
2019-05-21T11:16:56.734Z,16.18
2019-05-21T11:19:29.599Z,16.08
2019-05-21T11:22:02.390Z,16.10
2019-05-21T11:24:35.102Z,16.08
2019-05-21T11:27:07.690Z,16.26
2019-05-21T11:29:40.361Z,16.28
2019-05-21T11:32:13.776Z,16.23
2019-05-21T11:34:49.798Z,16.23
2019-05-21T11:37:20.677Z,16.10
2019-05-21T11:39:53.314Z,16.28
2019-05-21T11:42:26.073Z,16.41
2019-05-21T11:44:58.660Z,16.54
2019-05-21T11:47:31.727Z,16.63
2019-05-21T11:50:04.603Z,17.05
2019-05-21T11:52:37.146Z,17.83
2019-05-21T11:55:10.148Z,18.17
2019-05-21T11:57:42.135Z,18.27
2019-05-21T12:00:15.465Z,18.30
2019-05-21T12:02:48.214Z,18.05
2019-05-21T12:05:20.650Z,18.11
2019-05-21T12:07:53.075Z,18.61
2019-05-21T12:10:25.947Z,18.79
2019-05-21T12:12:57.975Z,18.74
2019-05-21T12:15:30.549Z,18.78
2019-05-21T12:18:03.498Z,18.77
2019-05-21T12:20:37.128Z,18.82
2019-05-21T12:23:08.490Z,18.73
2019-05-21T12:25:41.422Z,18.65
2019-05-21T12:28:13.825Z,18.58
2019-05-21T12:30:46.350Z,18.42
2019-05-21T12:33:19.467Z,18.09
2019-05-21T12:35:50.661Z,18.33
2019-05-21T12:38:23.103Z,18.32
2019-05-21T12:40:56.030Z,18.29
2019-05-21T12:43:28.721Z,18.28
2019-05-21T12:46:01.599Z,18.18
2019-05-21T12:48:34.358Z,17.93
2019-05-21T12:51:07.331Z,17.96
2019-05-21T12:53:39.962Z,17.77
2019-05-21T12:56:13.500Z,17.67
2019-05-21T12:58:45.863Z,17.88
2019-05-21T13:01:18.935Z,18.59
2019-05-21T13:03:50.280Z,19.78
2019-05-21T13:06:23.326Z,21.15
2019-05-21T13:08:55.844Z,22.14
2019-05-21T13:11:28.738Z,22.86
2019-05-21T13:14:01.214Z,24.03
2019-05-21T13:16:37.126Z,24.33
2019-05-21T13:19:11.307Z,25.24
2019-05-21T13:21:43.841Z,25.63
2019-05-21T13:24:16.426Z,26.60
2019-05-21T13:26:49.153Z,26.88
2019-05-21T13:29:23.113Z,27.21
2019-05-21T13:31:55.706Z,27.63
2019-05-21T13:34:28.565Z,27.85
2019-05-21T13:36:59.689Z,27.23
2019-05-21T13:39:48.381Z,26.87
2019-05-21T13:42:06.722Z,25.49
2019-05-21T13:44:39.219Z,24.57
2019-05-21T13:47:12.111Z,23.63
2019-05-21T13:49:43.361Z,22.58
2019-05-21T13:52:16.126Z,22.07
2019-05-21T13:54:48.832Z,21.48
2019-05-21T13:57:21.497Z,20.66
2019-05-21T13:59:54.356Z,19.75
2019-05-21T14:02:27.174Z,18.08
2019-05-21T14:05:00.135Z,17.98
2019-05-21T14:07:31.515Z,17.70
2019-05-21T14:10:16.117Z,16.90
2019-05-21T14:12:39.057Z,17.20
2019-05-21T14:15:13.316Z,17.76
2019-05-21T14:17:46.171Z,18.44
2019-05-21T14:20:18.627Z,19.28
2019-05-21T14:22:51.657Z,20.90
2019-05-21T14:25:22.759Z,22.01
2019-05-21T14:27:55.098Z,23.49
2019-05-21T14:30:28.166Z,24.16
2019-05-21T14:33:00.812Z,24.23
2019-05-21T14:35:33.865Z,24.73
2019-05-21T14:38:05.010Z,24.85
2019-05-21T14:40:38.439Z,24.32
2019-05-21T14:43:11.529Z,23.49
2019-05-21T14:45:44.214Z,23.70
2019-05-21T14:48:16.832Z,23.84
2019-05-21T14:50:49.624Z,24.11
2019-05-21T14:53:22.186Z,24.11
2019-05-21T14:55:55.467Z,23.26
2019-05-21T14:58:29.028Z,22.52
2019-05-21T15:01:05.130Z,22.20
2019-05-21T15:03:37.563Z,21.47
2019-05-21T15:06:10.294Z,21.48
2019-05-21T15:08:43.302Z,21.16
2019-05-21T15:11:17.711Z,20.81
2019-05-21T15:13:50.290Z,20.52
2019-05-21T15:16:23.338Z,20.03
2019-05-21T15:18:54.346Z,19.74
2019-05-21T15:21:34.782Z,19.70
2019-05-21T15:24:07.655Z,19.55
2019-05-21T15:26:40.408Z,19.39
2019-05-21T15:29:13.280Z,19.15
2019-05-21T15:31:45.831Z,18.87
2019-05-21T15:34:21.744Z,18.68
2019-05-21T15:36:55.673Z,18.41
2019-05-21T15:39:28.082Z,18.24
2019-05-21T15:42:01.086Z,18.24
2019-05-21T15:44:32.409Z,18.26
2019-05-21T15:47:04.721Z,18.34
2019-05-21T15:49:37.262Z,18.41
2019-05-21T15:52:10.174Z,18.27
2019-05-21T15:54:42.747Z,18.39
2019-05-21T15:57:15.705Z,18.43
2019-05-21T15:59:48.270Z,18.44
2019-05-21T16:02:20.824Z,18.55
2019-05-21T16:04:53.469Z,18.42
2019-05-21T16:07:26.158Z,18.43
2019-05-21T16:10:00.854Z,18.43
2019-05-21T16:12:33.772Z,18.58
2019-05-21T16:15:06.542Z,18.69
2019-05-21T16:17:39.363Z,18.69
2019-05-21T16:20:12.421Z,18.76
2019-05-21T16:22:45.224Z,18.67
2019-05-21T16:25:17.931Z,18.77
2019-05-21T16:27:50.837Z,18.76
2019-05-21T16:30:23.321Z,18.71
2019-05-21T16:32:56.413Z,18.74
2019-05-21T16:35:27.659Z,18.71
2019-05-21T16:38:00.135Z,18.60
2019-05-21T16:40:32.975Z,18.57
2019-05-21T16:43:05.493Z,18.48
2019-05-21T16:45:39.099Z,18.46
2019-05-21T16:48:12.074Z,18.26
2019-05-21T16:50:44.663Z,18.31
2019-05-21T16:53:16.623Z,18.24
2019-05-21T16:55:48.973Z,18.21
2019-05-21T16:58:22.020Z,18.21
2019-05-21T17:00:54.518Z,18.07
2019-05-21T17:03:26.992Z,18.17
2019-05-21T17:05:59.832Z,18.11
2019-05-21T17:08:32.626Z,18.08
2019-05-21T17:11:05.103Z,18.06
2019-05-21T17:13:38.021Z,17.94
2019-05-21T17:16:10.660Z,18.00
2019-05-21T17:18:43.175Z,17.98
2019-05-21T17:21:16.187Z,17.96
2019-05-21T17:23:49.633Z,17.81
2019-05-21T17:26:25.242Z,17.86
2019-05-21T17:28:57.757Z,17.68
2019-05-21T17:31:30.719Z,17.68
2019-05-21T17:34:03.349Z,17.60
2019-05-21T17:36:36.533Z,17.53
2019-05-21T17:39:09.380Z,17.43
2019-05-21T17:41:42.189Z,17.52
2019-05-21T17:44:14.828Z,17.41
2019-05-21T17:46:47.607Z,17.40
2019-05-21T17:49:20.487Z,17.40
2019-05-21T17:51:53.536Z,17.28
2019-05-21T17:54:24.777Z,17.19
2019-05-21T17:56:57.239Z,17.12
2019-05-21T17:59:30.213Z,16.90
2019-05-21T18:02:03.580Z,16.81
2019-05-21T18:04:36.313Z,16.81
2019-05-21T18:07:10.773Z,16.48
2019-05-21T18:09:43.523Z,16.58
2019-05-21T18:12:31.071Z,16.47
2019-05-21T18:14:53.041Z,16.29
2019-05-21T18:17:27.203Z,16.18
2019-05-21T18:20:02.017Z,16.11
2019-05-21T18:22:35.696Z,16.07
2019-05-21T18:25:09.393Z,16.06
2019-05-21T18:27:42.356Z,15.91
2019-05-21T18:30:15.491Z,15.88
2019-05-21T18:32:49.394Z,15.86
2019-05-21T18:35:22.101Z,15.84
2019-05-21T18:37:55.378Z,15.89
2019-05-21T18:40:28.223Z,15.77
2019-05-21T18:43:01.228Z,15.73
2019-05-21T18:45:33.991Z,15.45
2019-05-21T18:48:07.101Z,15.36
2019-05-21T18:50:39.307Z,15.37
2019-05-21T18:53:11.998Z,15.29
2019-05-21T18:55:44.985Z,15.36
2019-05-21T18:58:17.939Z,15.30
2019-05-21T19:00:50.820Z,15.11
2019-05-21T19:03:26.543Z,14.84
2019-05-21T19:05:58.147Z,14.98
2019-05-21T19:08:29.512Z,14.98
2019-05-21T19:11:02.048Z,14.96
2019-05-21T19:13:34.902Z,14.70
2019-05-21T19:16:07.617Z,14.65
2019-05-21T19:18:40.293Z,14.56
2019-05-21T19:21:12.960Z,14.58
2019-05-21T19:23:45.488Z,14.45
2019-05-21T19:26:18.348Z,14.35
2019-05-21T19:28:50.937Z,14.49
2019-05-21T19:31:23.554Z,14.21
2019-05-21T19:33:56.411Z,14.36
2019-05-21T19:36:29.176Z,14.14
2019-05-21T19:39:02.155Z,14.22
2019-05-21T19:41:36.505Z,14.11
2019-05-21T19:44:09.158Z,14.07
2019-05-21T19:46:42.071Z,13.96
2019-05-21T19:49:14.690Z,13.89
2019-05-21T19:51:48.235Z,13.79
2019-05-21T19:54:21.122Z,13.72
2019-05-21T19:56:55.248Z,13.72
2019-05-21T19:59:27.767Z,13.87
2019-05-21T20:01:59.719Z,13.94
2019-05-21T20:04:33.534Z,13.93
2019-05-21T20:07:09.797Z,13.96
2019-05-21T20:09:45.563Z,13.82
2019-05-21T20:12:18.280Z,13.88
2019-05-21T20:14:51.445Z,13.68
2019-05-21T20:17:24.455Z,13.83
2019-05-21T20:19:56.826Z,13.77
2019-05-21T20:22:30.661Z,13.52
2019-05-21T20:25:04.893Z,13.42
2019-05-21T20:27:37.349Z,13.59
2019-05-21T20:30:13.329Z,13.66
2019-05-21T20:32:46.728Z,13.66
2019-05-21T20:35:21.297Z,13.42
2019-05-21T20:37:55.198Z,13.34
2019-05-21T20:40:27.942Z,13.40
2019-05-21T20:43:00.893Z,13.38
2019-05-21T20:45:33.404Z,13.41
2019-05-21T20:48:07.375Z,13.42
2019-05-21T20:50:41.641Z,13.16
2019-05-21T20:53:15.140Z,12.96
2019-05-21T20:55:48.343Z,12.99
2019-05-21T20:58:20.015Z,12.99
2019-05-21T21:00:54.326Z,12.98
2019-05-21T21:03:30.785Z,12.90
2019-05-21T21:06:04.459Z,12.91
2019-05-21T21:08:37.931Z,12.77
2019-05-21T21:11:11.554Z,12.83
2019-05-21T21:13:44.822Z,12.94
2019-05-21T21:16:18.052Z,12.95
2019-05-21T21:18:50.834Z,13.05
2019-05-21T21:21:23.477Z,13.05
2019-05-21T21:23:56.862Z,13.06
2019-05-21T21:26:31.310Z,13.02
2019-05-21T21:29:04.099Z,13.02
2019-05-21T21:31:37.077Z,13.01
2019-05-21T21:34:09.708Z,13.07
2019-05-21T21:36:42.164Z,13.02
2019-05-21T21:39:15.779Z,12.89
2019-05-21T21:41:49.320Z,12.83
2019-05-21T21:44:33.604Z,12.91
2019-05-21T21:46:57.579Z,12.67
2019-05-21T21:49:30.826Z,12.89
2019-05-21T21:52:01.984Z,12.84
2019-05-21T21:54:34.977Z,12.71
2019-05-21T21:57:07.794Z,12.65
2019-05-21T21:59:40.526Z,12.73
2019-05-21T22:02:27.678Z,12.76
2019-05-21T22:05:01.984Z,12.72
2019-05-21T22:07:35.951Z,12.80
2019-05-21T22:10:09.906Z,12.69
2019-05-21T22:12:43.847Z,12.68
2019-05-21T22:15:16.759Z,12.56
2019-05-21T22:17:49.928Z,12.53
2019-05-21T22:20:23.102Z,12.47
2019-05-21T22:22:55.111Z,12.42
2019-05-21T22:25:28.872Z,12.36
2019-05-21T22:28:01.771Z,12.34
2019-05-21T22:30:35.131Z,12.32
2019-05-21T22:33:08.936Z,12.41
2019-05-21T22:35:41.925Z,12.52
2019-05-21T22:38:14.754Z,12.77
2019-05-21T22:40:47.638Z,12.86
2019-05-21T22:43:21.232Z,12.93
2019-05-21T22:45:54.062Z,12.96
2019-05-21T22:48:26.939Z,13.06
2019-05-21T22:50:59.494Z,13.10
2019-05-21T22:53:32.456Z,13.08
2019-05-21T22:56:04.995Z,13.03
2019-05-21T22:58:38.093Z,13.02
2019-05-21T23:01:12.032Z,13.06
2019-05-21T23:03:44.919Z,13.07
2019-05-21T23:06:17.425Z,12.88
2019-05-21T23:08:50.129Z,12.95
2019-05-21T23:11:23.389Z,12.88
2019-05-21T23:13:54.332Z,12.87
2019-05-21T23:16:27.474Z,13.00
2019-05-21T23:19:13.340Z,13.02
2019-05-21T23:21:47.828Z,13.00
2019-05-21T23:24:22.261Z,12.95
2019-05-21T23:26:55.746Z,13.00
2019-05-21T23:29:28.561Z,12.86
2019-05-21T23:32:01.475Z,12.91
2019-05-21T23:34:35.081Z,13.03
2019-05-21T23:37:10.713Z,12.72
2019-05-21T23:39:44.959Z,12.60
2019-05-21T23:42:29.000Z,12.68
2019-05-21T23:44:53.399Z,12.79
2019-05-21T23:47:24.992Z,12.82
2019-05-21T23:49:58.042Z,12.89
2019-05-21T23:52:31.360Z,12.70
2019-05-21T23:55:04.017Z,12.70
2019-05-21T23:57:38.083Z,12.89
